Latest Weather Observations for Avalon

IDV60801

Issued at 3:02 pm EDT Thursday 29 January 2015 (issued every 30 minutes, with the page automatically refreshed every 10 minutes)

About weather observations | Map of weather stations | Latest weather observations for VIC | Other Formats
Station Details ID: 087113 Name: AVALON AIRPORT Lat: -38.03 Lon: 144.48 Height: 10.6 m
Data from the previous 72 hours. | See also: Recent months at Avalon
Date/Time
EDT
Temp
°C
App
Temp
°C
Dew
Point
Rel
Hum
%
Delta-T
°C
Wind Press
QNH
hPa
Press
MSL
hPa
Rain
since 9 am
mm
Dir
 
Spd
km/h
Gust
km/h
Spd
kts
Gust
kts
29/03:00pm 20.4 13.5 9.0 48 6.0 S 35 46 19 25 1019.8 1019.8 0.0
29/02:30pm 19.9 13.0 8.9 49 5.8 S 35 54 19 29 1019.9 1019.9 0.0
29/02:29pm 20.4 13.5 9.0 48 6.0 S 35 54 19 29 1019.9 1019.9 0.0
29/02:00pm 19.6 13.3 8.9 50 5.6 SSE 32 41 17 22 1020.2 1020.2 0.0
29/01:30pm 19.6 13.6 8.6 49 5.7 SSE 30 39 16 21 1020.3 1020.3 0.0
29/01:00pm 21.4 15.2 9.3 46 6.4 SSE 32 41 17 22 1020.5 1020.5 0.0
29/12:30pm 19.2 12.8 8.5 50 5.6 SSE 32 39 17 21 1020.8 1020.8 0.0
29/12:00pm 20.2 14.7 9.2 49 5.8 SSE 28 39 15 21 1020.7 1020.7 0.0
29/11:30am 20.4 14.5 7.4 43 6.7 SE 28 39 15 21 1020.9 1020.9 0.0
29/11:00am 20.9 16.0 9.8 49 5.9 SE 26 37 14 20 1021.1 1021.1 0.0
29/10:30am 17.6 13.0 9.5 59 4.2 ESE 24 32 13 17 1021.2 1021.2 0.0
29/10:00am 18.1 13.2 10.0 59 4.3 ESE 26 33 14 18 1021.3 1021.3 0.0
29/09:30am 18.1 12.7 9.5 57 4.5 ESE 28 35 15 19 1021.2 1021.2 0.0
29/09:00am 17.9 12.1 9.5 58 4.4 ESE 30 39 16 21 1021.1 1021.1 0.0
29/08:30am 17.0 11.3 9.7 62 3.8 ESE 30 35 16 19 1020.9 1020.9 0.0
29/08:00am 16.0 11.5 10.1 68 3.1 ESE 24 33 13 18 1020.8 1020.8 0.0
29/07:30am 16.0 11.5 9.9 67 3.2 ESE 24 32 13 17 1020.6 1020.6 0.0
29/07:00am 14.7 11.1 9.9 73 2.5 SE 19 26 10 14 1020.3 1020.3 0.0
29/06:30am 14.2 9.9 9.4 73 2.5 ESE 22 26 12 14 1020.0 1020.0 0.0
29/06:00am 14.3 10.5 9.7 74 2.4 ESE 20 26 11 14 1019.8 1019.8 0.0
29/05:30am 14.6 10.0 9.6 72 2.6 ESE 24 30 13 16 1019.6 1019.6 0.0
29/05:00am 15.0 10.1 9.8 71 2.7 ESE 26 32 14 17 1019.4 1019.4 0.0
29/04:30am 15.1 9.6 9.2 68 3.0 ESE 28 35 15 19 1019.2 1019.2 0.0
29/04:00am 15.0 9.8 8.9 67 3.1 ESE 26 33 14 18 1019.3 1019.3 0.0
29/03:30am 15.4 10.3 9.3 67 3.1 ESE 26 35 14 19 1019.5 1019.5 0.0
29/03:00am 15.2 10.6 9.6 69 2.9 ESE 24 32 13 17 1019.7 1019.7 0.0
29/02:30am 15.1 10.5 9.7 70 2.8 ESE 24 32 13 17 1019.8 1019.8 0.0
29/02:00am 15.3 10.7 9.7 69 2.9 ESE 24 30 13 16 1019.9 1019.9 0.0
29/01:30am 15.4 10.8 9.5 68 3.0 ESE 24 30 13 16 1020.1 1020.1 0.0
29/01:00am 15.8 10.5 9.7 67 3.2 ESE 28 33 15 18 1020.2 1020.2 0.0
29/12:30am 16.1 10.3 9.5 65 3.4 ESE 30 37 16 20 1020.3 1020.3 0.0
29/12:00am 16.3 10.8 10.4 68 3.1 ESE 30 37 16 20 1020.3 1020.3 0.0
 
Date/Time
EDT
Temp
°C
App
Temp
°C
Dew
Point
Rel
Hum
%
Delta-T
°C
Wind Press
QNH
hPa
Press
MSL
hPa
Rain
since 9 am
mm
Dir
 
Spd
km/h
Gust
km/h
Spd
kts
Gust
kts
28/11:30pm 16.4 11.4 10.9 70 2.9 SE 28 37 15 20 1020.1 1020.1 0.0
28/11:00pm 16.7 11.7 10.8 68 3.1 SE 28 41 15 22 1020.2 1020.2 0.0
28/10:30pm 16.4 11.6 11.8 74 2.5 SSE 28 35 15 19 1020.2 1020.2 0.0
28/10:00pm 16.5 11.6 11.4 72 2.7 SSE 28 37 15 20 1020.3 1020.3 0.0
28/09:30pm 16.6 11.6 11.1 70 3.0 SSE 28 39 15 21 1019.9 1019.9 0.0
28/09:00pm 17.1 11.5 10.2 64 3.6 SSE 30 37 16 20 1019.7 1019.7 0.0
28/08:30pm 17.6 12.0 8.7 56 4.6 SSE 28 37 15 20 1019.5 1019.5 0.0
28/08:00pm 18.7 12.1 8.7 52 5.2 SSE 33 48 18 26 1019.2 1019.2 0.0
28/07:30pm 19.4 13.0 8.7 50 5.6 SSE 32 43 17 23 1019.1 1019.1 0.0
28/07:00pm 19.9 11.8 8.6 48 5.9 SSE 41 50 22 27 1018.8 1018.8 0.0
28/06:30pm 20.3 11.6 7.7 44 6.5 SSE 43 54 23 29 1018.7 1018.7 0.0
28/06:00pm 21.3 12.6 7.9 42 7.0 SSE 43 56 23 30 1018.7 1018.7 0.0
28/05:30pm 21.7 13.2 8.6 43 6.9 SSE 43 54 23 29 1018.6 1018.6 0.0
28/05:00pm 22.3 14.2 10.1 46 6.6 SSE 43 54 23 29 1018.3 1018.3 0.0
28/04:30pm 22.7 14.8 10.8 47 6.6 SSE 43 52 23 28 1018.3 1018.3 0.0
28/04:00pm 23.2 15.6 10.6 45 6.9 SSE 41 56 22 30 1018.4 1018.4 0.0
28/03:30pm 22.9 15.0 10.7 46 6.7 SSE 43 54 23 29 1018.5 1018.5 0.0
28/03:00pm 23.3 16.0 11.4 47 6.7 SSE 41 50 22 27 1018.5 1018.5 0.0
28/02:30pm 23.6 17.0 11.3 46 6.9 SE 37 46 20 25 1018.5 1018.5 0.0
28/02:00pm 23.5 17.2 11.2 46 6.9 SSE 35 44 19 24 1018.6 1018.6 0.0
28/01:30pm 23.0 17.4 11.4 48 6.5 SE 32 41 17 22 1018.7 1018.7 0.0
28/01:00pm 22.4 17.8 12.4 53 5.7 SE 28 35 15 19 1018.9 1018.9 0.0
28/12:30pm 22.3 16.4 11.1 49 6.2 SE 33 39 18 21 1018.7 1018.7 0.0
28/12:00pm 21.4 15.9 11.7 54 5.4 SE 32 39 17 21 1018.9 1018.9 0.0
28/11:30am 20.8 15.9 11.4 55 5.2 SE 28 37 15 20 1019.1 1019.1 0.0
28/11:00am 20.8 16.5 10.9 53 5.4 SE 24 32 13 17 1019.2 1019.2 0.0
28/10:30am 19.1 14.6 10.1 56 4.8 SE 24 33 13 18 1019.2 1019.2 0.0
28/10:00am 18.9 13.8 10.7 59 4.4 SE 28 33 15 18 1019.2 1019.2 0.0
28/09:30am 18.1 12.6 10.5 61 4.1 ESE 30 35 16 19 1019.2 1019.2 0.0
28/09:00am 17.5 11.7 9.4 59 4.2 SE 30 35 16 19 1019.1 1019.1 0.0
28/08:30am 17.5 12.4 10.6 64 3.7 ESE 28 39 15 21 1018.7 1018.7 0.0
28/08:00am 17.0 13.6 11.3 69 3.1 SE 20 26 11 14 1018.2 1018.2 0.0
28/07:30am 16.0 13.3 11.8 76 2.3 SE 17 20 9 11 1017.9 1017.9 0.0
28/07:00am 13.8 11.3 11.0 83 1.5 SSE 15 17 8 9 1017.7 1017.7 0.0
28/06:30am 12.6 9.8 10.1 85 1.3 SSE 15 17 8 9 1017.5 1017.5 0.0
28/06:00am 12.4 9.5 9.8 84 1.3 S 15 17 8 9 1017.3 1017.3 0.0
28/05:30am 13.3 10.4 9.7 79 1.8 S 15 17 8 9 1017.0 1017.0 0.0
28/05:00am 14.0 11.8 10.8 81 1.7 S 13 15 7 8 1017.1 1017.1 0.0
28/04:30am 11.8 9.0 8.6 81 1.6 SSE 13 15 7 8 1017.0 1017.0 0.0
28/04:00am 12.9 9.9 9.2 78 1.9 S 15 17 8 9 1017.0 1017.0 0.0
28/03:30am 13.2 9.9 9.5 78 1.9 SSE 17 22 9 12 1017.1 1017.1 0.0
28/03:00am 13.7 10.0 9.6 76 2.1 S 19 20 10 11 1017.3 1017.3 0.0
28/02:30am 13.7 10.4 9.6 76 2.1 S 17 22 9 12 1017.5 1017.5 0.0
28/02:00am 13.9 10.6 9.7 76 2.2 S 17 20 9 11 1017.7 1017.7 0.0
28/01:30am 14.4 10.1 9.4 72 2.6 SSE 22 28 12 15 1018.0 1018.0 0.0
28/01:00am 14.3 10.9 9.1 71 2.6 SSE 17 22 9 12 1018.4 1018.4 0.0
28/12:30am 14.0 10.1 8.8 71 2.6 SSE 19 24 10 13 1018.5 1018.5 0.0
28/12:00am 14.2 10.3 8.6 69 2.8 SSE 19 26 10 14 1018.5 1018.5 0.0
 
Date/Time
EDT
Temp
°C
App
Temp
°C
Dew
Point
Rel
Hum
%
Delta-T
°C
Wind Press
QNH
hPa
Press
MSL
hPa
Rain
since 9 am
mm
Dir
 
Spd
km/h
Gust
km/h
Spd
kts
Gust
kts
27/11:30pm 14.4 10.2 8.4 67 3.0 S 20 26 11 14 1018.6 1018.6 0.0
27/11:00pm 14.7 10.2 8.6 67 3.1 SSE 22 30 12 16 1018.7 1018.7 0.0
27/10:30pm 14.9 9.9 8.2 64 3.4 S 24 33 13 18 1018.7 1018.7 0.0
27/10:00pm 14.7 10.3 8.9 68 2.9 S 22 30 12 16 1018.6 1018.6 0.0
27/09:30pm 14.7 10.1 8.0 64 3.3 S 22 32 12 17 1018.4 1018.4 0.0
27/09:00pm 15.1 9.4 8.3 64 3.4 S 28 33 15 18 1018.3 1018.3 0.0
27/08:30pm 15.6 10.6 8.1 61 3.8 S 24 35 13 19 1018.2 1018.2 0.0
27/08:00pm 16.2 10.2 7.2 55 4.5 SSE 28 35 15 19 1017.9 1017.9 0.0
27/07:30pm 17.4 11.5 7.7 53 4.9 SSE 28 35 15 19 1017.8 1017.8 0.0
27/07:00pm 18.0 11.7 7.4 50 5.3 S 30 39 16 21 1017.4 1017.4 0.0
27/06:30pm 18.5 11.7 7.0 47 5.8 S 32 39 17 21 1017.2 1017.2 0.0
27/06:00pm 19.0 12.5 6.5 44 6.2 SSE 30 41 16 22 1017.2 1017.2 0.0
27/05:30pm 18.6 11.7 7.4 48 5.7 SSE 33 41 18 22 1017.1 1017.1 0.0
27/05:00pm 19.3 12.6 8.3 49 5.7 S 33 43 18 23 1017.3 1017.3 0.0
27/04:30pm 18.3 11.8 8.0 51 5.3 SSE 32 43 17 23 1017.3 1017.3 0.0
27/04:00pm 19.3 12.7 7.7 47 5.9 SSE 32 43 17 23 1017.3 1017.3 0.0
27/03:30pm 19.1 12.3 7.5 47 5.9 S 33 43 18 23 1017.4 1017.4 0.0
27/03:00pm 20.7 14.3 8.4 45 6.4 S 32 48 17 26 1017.4 1017.4 0.0
27/02:30pm 19.1 12.6 8.1 49 5.7 SSE 32 39 17 21 1017.4 1017.4 0.0
27/02:00pm 19.9 13.4 8.9 49 5.8 S 33 43 18 23 1017.4 1017.4 0.0
27/01:30pm 20.1 14.1 10.2 53 5.3 S 32 43 17 23 1017.5 1017.5 0.0
27/01:00pm 19.3 13.2 8.3 49 5.7 S 30 43 16 23 1017.6 1017.6 0.0
27/12:30pm 19.6 14.0 8.6 49 5.7 S 28 39 15 21 1017.7 1017.7 0.0
27/12:00pm 17.8 11.5 7.2 50 5.3 S 30 41 16 22 1017.9 1017.9 0.0
27/11:30am 19.7 13.8 7.4 45 6.3 S 28 37 15 20 1018.1 1018.1 0.0
27/11:00am 19.0 12.9 6.8 45 6.1 SSE 28 37 15 20 1017.9 1017.9 0.0
27/10:30am 18.7 12.7 7.2 47 5.8 S 28 41 15 22 1017.9 1017.9 0.0
27/10:00am 18.1 12.0 6.6 47 5.7 SSE 28 33 15 18 1017.8 1017.8 0.0
27/09:30am 18.0 12.8 7.4 50 5.3 SSE 24 33 13 18 1017.9 1017.9 0.0
27/09:00am 17.3 11.9 7.9 54 4.8 SSE 26 32 14 17 1017.7 1017.7 0.0
27/08:30am 16.5 11.0 7.7 56 4.4 SSE 26 33 14 18 1017.4 1017.4 0.0
27/08:00am 15.9 10.9 7.9 59 4.0 SSE 24 30 13 16 1017.2 1017.2 0.0
27/07:30am 14.8 10.7 8.7 67 3.1 S 20 26 11 14 1017.0 1017.0 0.0
27/07:00am 13.0 9.8 8.5 74 2.2 SSE 15 20 8 11 1016.9 1016.9 0.0
27/06:30am 11.7 8.4 8.2 79 1.7 SSE 15 17 8 9 1016.8 1016.8 0.0
27/06:00am 11.3 8.7 7.6 78 1.8 SSE 11 15 6 8 1016.7 1016.7 0.0
27/05:30am 12.0 8.6 7.7 75 2.1 SSE 15 17 8 9 1016.7 1016.7 0.0
27/05:00am 12.1 8.5 8.2 77 1.9 SSE 17 20 9 11 1016.6 1016.6 0.0
27/04:30am 11.5 8.5 7.8 78 1.8 SSE 13 17 7 9 1016.6 1016.6 0.0
27/04:00am 11.2 7.8 7.5 78 1.8 SSE 15 17 8 9 1016.7 1016.7 0.0
27/03:30am 11.3 8.3 7.6 78 1.8 SSE 13 17 7 9 1016.8 1016.8 0.0
27/03:00am 12.0 9.0 7.9 76 2.0 SSE 13 17 7 9 1016.9 1016.9 0.0
27/02:30am 12.6 9.3 8.1 74 2.2 SSE 15 20 8 11 1017.0 1017.0 0.0
27/02:00am 13.2 9.5 8.1 71 2.5 SSE 17 20 9 11 1017.3 1017.3 0.0
27/01:30am 13.4 9.8 8.5 72 2.4 SSE 17 22 9 12 1017.6 1017.6 0.0
27/01:00am 13.2 9.7 8.7 74 2.3 SSE 17 20 9 11 1017.7 1017.7 0.0
27/12:30am 13.3 10.2 8.8 74 2.3 SSE 15 19 8 10 1017.9 1017.9 0.0
27/12:00am 13.0 9.9 8.7 75 2.1 SSE 15 19 8 10 1018.0 1018.0 0.0
 
Date/Time
EDT
Temp
°C
App
Temp
°C
Dew
Point
Rel
Hum
%
Delta-T
°C
Wind Press
QNH
hPa
Press
MSL
hPa
Rain
since 9 am
mm
Dir
 
Spd
km/h
Gust
km/h
Spd
kts
Gust
kts
26/11:30pm 13.0 9.9 8.7 75 2.2 SSE 15 19 8 10 1018.1 1018.1 0.0
26/11:00pm 12.4 9.4 7.9 74 2.2 SSE 13 17 7 9 1018.2 1018.2 0.0
26/10:30pm 12.5 9.4 7.4 71 2.5 SSE 13 15 7 8 1018.3 1018.3 0.0
26/10:00pm 13.4 10.0 7.8 69 2.8 SSE 15 19 8 10 1018.2 1018.2 0.0
26/09:30pm 14.0 10.7 8.0 67 3.0 SSE 15 20 8 11 1017.9 1017.9 0.0
26/09:00pm 14.3 10.5 7.6 64 3.3 SSE 17 22 9 12 1017.8 1017.8 0.0
26/08:30pm 15.2 10.4 7.5 60 3.8 S 22 28 12 15 1017.6 1017.6 0.0
26/08:00pm 16.2 10.7 7.4 56 4.4 S 26 32 14 17 1017.3 1017.3 0.0
26/07:30pm 16.8 10.8 6.9 52 4.9 S 28 35 15 19 1017.0 1017.0 0.0
26/07:00pm 17.4 11.5 7.5 52 5.0 S 28 39 15 21 1016.6 1016.6 0.0
26/06:30pm 17.9 11.1 7.0 49 5.4 S 32 39 17 21 1016.5 1016.5 0.0
26/06:00pm 18.9 12.7 8.0 49 5.6 S 30 39 16 21 1016.5 1016.5 0.0
26/05:30pm 18.8 12.2 7.9 49 5.6 S 32 43 17 23 1016.5 1016.5 0.0
26/05:00pm 18.9 12.3 7.7 48 5.7 S 32 43 17 23 1016.5 1016.5 0.0
26/04:30pm 19.1 12.4 7.5 47 5.9 S 32 43 17 23 1016.5 1016.5 0.0
26/04:00pm 19.8 13.5 7.5 45 6.3 S 30 41 16 22 1016.6 1016.6 0.0
26/03:30pm 19.7 13.6 8.1 47 6.0 S 30 43 16 23 1016.6 1016.6 0.0

Other Formats:

Comma delimited format used in spreadsheet applications
http://www.bom.gov.au/fwo/IDV60801/IDV60801.94854.axf

JavaScript Object Notation format (JSON) in row-major order
http://www.bom.gov.au/fwo/IDV60801/IDV60801.94854.json